Time;durP1;ratioP1;P1;durP2;ratioP2;P2;SDS_P1;SDS_P2;PMS_P1;PMS_P2;Temp;Humidity;BMP_temperature;BMP_pressure;BME280_temperature;BME280_humidity;BME280_pressure;Samples;Min_cycle;Max_cycle;Signal;HPM_P1;HPM_P2
2024/01/01 00:02:13;;;;;;;27.92;9.50;;;8.40;99.90;;;;;;5060100;28;20056;-81
2024/01/01 00:04:40;;;;;;;22.98;11.10;;;8.40;99.90;;;;;;5057877;28;20040;-79
2024/01/01 00:07:07;;;;;;;17.85;5.25;;;8.40;99.90;;;;;;5062304;28;20512;-78
2024/01/01 00:09:33;;;;;;;16.20;3.13;;;8.40;99.90;;;;;;5053001;28;20110;-78
2024/01/01 00:12:00;;;;;;;13.18;5.43;;;8.40;99.90;;;;;;5059683;28;20051;-79
2024/01/01 00:14:27;;;;;;;12.50;3.03;;;8.40;99.90;;;;;;5063258;28;20537;-77
2024/01/01 00:16:54;;;;;;;17.73;3.42;;;8.50;99.90;;;;;;5051681;28;20652;-78
2024/01/01 00:19:21;;;;;;;18.77;5.00;;;8.50;99.90;;;;;;5070243;28;20060;-78
2024/01/01 00:21:48;;;;;;;10.23;3.65;;;8.50;99.90;;;;;;5061833;28;20097;-79
2024/01/01 00:24:16;;;;;;;16.40;3.40;;;8.50;99.90;;;;;;5059602;28;20048;-78
2024/01/01 00:26:44;;;;;;;16.42;3.38;;;8.60;99.90;;;;;;5055084;28;20041;-79
2024/01/01 00:29:11;;;;;;;12.52;3.78;;;8.60;99.90;;;;;;5066580;28;20116;-78
2024/01/01 00:31:52;;;;;;;13.65;3.25;;;8.60;99.90;;;;;;5066782;28;20052;-78
2024/01/01 00:34:19;;;;;;;12.73;2.40;;;8.60;99.90;;;;;;5059705;28;20728;-79
2024/01/01 00:36:47;;;;;;;14.30;3.53;;;8.60;99.90;;;;;;5067765;28;20048;-78
2024/01/01 00:39:13;;;;;;;14.13;2.88;;;8.60;99.90;;;;;;5058340;28;20052;-79
2024/01/01 00:41:40;;;;;;;9.43;3.03;;;8.60;99.90;;;;;;5065600;28;20048;-78
2024/01/01 00:44:07;;;;;;;9.95;2.47;;;8.50;99.90;;;;;;5063592;28;20549;-79
2024/01/01 00:46:34;;;;;;;11.15;2.90;;;8.60;99.90;;;;;;5053777;28;20068;-78
2024/01/01 00:49:01;;;;;;;9.82;2.75;;;8.50;99.90;;;;;;5058381;28;20045;-81
2024/01/01 00:51:28;;;;;;;7.35;2.20;;;8.50;99.90;;;;;;5058495;28;20052;-79
2024/01/01 00:53:55;;;;;;;7.38;1.90;;;8.40;99.90;;;;;;5059448;28;20041;-77
2024/01/01 00:56:21;;;;;;;5.75;1.90;;;8.40;99.90;;;;;;5059137;28;20076;-77
2024/01/01 00:58:48;;;;;;;8.10;3.95;;;8.40;99.90;;;;;;5058661;28;20167;-79
2024/01/01 01:01:15;;;;;;;15.93;2.25;;;8.40;99.90;;;;;;4721213;28;10000154;-79
2024/01/01 01:03:42;;;;;;;15.50;3.45;;;8.30;99.90;;;;;;5062974;28;20041;-78
2024/01/01 01:06:09;;;;;;;13.20;2.30;;;8.30;99.90;;;;;;5066675;28;20479;-79
2024/01/01 01:08:46;;;;;;;11.52;2.20;;;8.30;99.90;;;;;;5062685;28;20041;-79
2024/01/01 01:11:14;;;;;;;9.07;2.10;;;8.30;99.90;;;;;;5061002;28;20040;-80
2024/01/01 01:13:41;;;;;;;10.05;2.00;;;8.20;99.90;;;;;;5060558;28;20044;-79
2024/01/01 01:16:07;;;;;;;6.90;1.70;;;8.20;99.90;;;;;;5063612;28;20041;-81
2024/01/01 01:18:34;;;;;;;10.27;2.13;;;8.20;99.90;;;;;;5067881;28;20070;-79
2024/01/01 01:21:01;;;;;;;8.88;2.90;;;8.10;99.90;;;;;;5065745;28;20080;-79
2024/01/01 01:23:28;;;;;;;10.98;2.30;;;8.10;99.90;;;;;;5065490;28;20049;-80
2024/01/01 01:25:55;;;;;;;11.48;1.83;;;8.10;99.90;;;;;;5067811;28;20045;-79
2024/01/01 01:28:22;;;;;;;5.90;2.08;;;8.10;99.90;;;;;;5064898;28;20090;-80
2024/01/01 01:30:49;;;;;;;15.43;2.17;;;8.10;99.90;;;;;;5065047;28;20063;-80
2024/01/01 01:33:16;;;;;;;10.00;2.13;;;8.10;99.90;;;;;;5055129;28;20056;-81
2024/01/01 01:35:43;;;;;;;9.25;1.85;;;8.10;99.90;;;;;;5066959;28;20049;-80
2024/01/01 01:38:10;;;;;;;5.18;1.45;;;8.00;99.90;;;;;;5061619;28;20073;-80
2024/01/01 01:40:37;;;;;;;9.13;1.75;;;8.00;99.90;;;;;;5075260;28;20491;-81
2024/01/01 01:43:15;;;;;;;14.90;1.83;;;8.00;99.90;;;;;;5060037;28;20044;-79
2024/01/01 01:45:42;;;;;;;9.60;1.75;;;8.00;99.90;;;;;;5060436;28;20646;-80
2024/01/01 01:48:10;;;;;;;12.52;1.90;;;8.00;99.90;;;;;;5075107;28;20557;-80
2024/01/01 01:50:37;;;;;;;5.40;1.33;;;8.10;99.90;;;;;;5065766;28;20104;-81
2024/01/01 01:53:03;;;;;;;10.02;1.45;;;8.10;99.90;;;;;;5065231;28;20569;-79
2024/01/01 01:55:30;;;;;;;7.28;2.03;;;8.10;99.90;;;;;;5065810;28;20139;-81
2024/01/01 01:57:57;;;;;;;6.57;1.33;;;8.10;99.90;;;;;;5064696;28;20389;-80
2024/01/01 02:00:24;;;;;;;8.05;1.75;;;8.10;99.90;;;;;;5064287;28;20122;-80
2024/01/01 02:02:51;;;;;;;13.02;1.60;;;8.20;99.90;;;;;;5069722;28;20479;-80
2024/01/01 02:05:18;;;;;;;10.75;2.97;;;8.20;99.90;;;;;;5068130;28;20056;-80
2024/01/01 02:07:45;;;;;;;7.70;1.90;;;8.20;99.90;;;;;;5062617;28;20139;-80
2024/01/01 02:10:12;;;;;;;14.40;1.85;;;8.20;99.90;;;;;;5066253;28;20044;-80
2024/01/01 02:12:38;;;;;;;15.57;2.55;;;8.20;99.90;;;;;;5060711;28;20084;-82
2024/01/01 02:15:06;;;;;;;7.80;1.58;;;8.10;99.90;;;;;;5063251;28;20045;-79
2024/01/01 02:17:33;;;;;;;8.57;1.58;;;8.10;99.90;;;;;;5065273;28;20052;-78
2024/01/01 02:20:00;;;;;;;13.73;1.80;;;8.10;99.90;;;;;;5058005;28;20052;-80
2024/01/01 02:22:37;;;;;;;9.07;1.77;;;8.00;99.90;;;;;;5064092;28;20580;-79
2024/01/01 02:25:08;;;;;;;15.88;1.70;;;8.00;99.90;;;;;;5064450;28;21090;-78
2024/01/01 02:27:36;;;;;;;13.82;2.60;;;8.00;99.90;;;;;;5061786;28;20109;-78
2024/01/01 02:30:04;;;;;;;11.20;1.77;;;8.00;99.90;;;;;;5065336;28;20040;-78
2024/01/01 02:32:31;;;;;;;8.95;2.03;;;8.00;99.90;;;;;;5057282;28;20045;-79
2024/01/01 02:34:58;;;;;;;10.55;1.55;;;7.90;99.90;;;;;;5066424;28;20072;-78
2024/01/01 02:37:25;;;;;;;8.73;1.83;;;8.00;99.90;;;;;;5065236;28;20048;-78
2024/01/01 02:39:52;;;;;;;12.63;3.72;;;8.00;99.90;;;;;;5052427;28;20072;-80
2024/01/01 02:42:18;;;;;;;12.52;1.85;;;8.00;99.90;;;;;;5062824;28;20040;-79
2024/01/01 02:44:45;;;;;;;9.93;1.92;;;8.00;99.90;;;;;;5066052;28;20118;-79
2024/01/01 02:47:12;;;;;;;9.82;1.73;;;8.10;99.90;;;;;;5066433;28;20054;-81
2024/01/01 02:49:39;;;;;;;10.38;1.45;;;8.10;99.90;;;;;;5070645;28;20055;-78
2024/01/01 02:52:06;;;;;;;7.32;1.52;;;8.10;99.90;;;;;;5069659;28;20048;-79
2024/01/01 02:54:33;;;;;;;9.15;2.20;;;8.10;99.90;;;;;;5071431;28;20044;-79
2024/01/01 02:57:00;;;;;;;17.08;1.98;;;8.10;99.90;;;;;;5066185;28;20086;-76
2024/01/01 02:59:27;;;;;;;11.23;3.00;;;8.20;99.90;;;;;;5068362;28;20044;-80
2024/01/01 03:01:53;;;;;;;7.22;1.60;;;8.20;99.90;;;;;;5070091;28;20094;-79
2024/01/01 03:04:20;;;;;;;9.00;1.50;;;8.20;99.90;;;;;;5064180;28;20044;-79
2024/01/01 03:06:47;;;;;;;9.38;1.90;;;8.20;99.90;;;;;;5068606;28;20036;-80
2024/01/01 03:09:14;;;;;;;11.10;3.03;;;8.30;99.90;;;;;;5062570;28;20090;-80
2024/01/01 03:11:41;;;;;;;9.55;1.67;;;8.30;99.90;;;;;;5068173;28;20106;-80
2024/01/01 03:14:08;;;;;;;5.68;1.70;;;8.30;99.90;;;;;;5067221;28;20507;-80
2024/01/01 03:16:34;;;;;;;5.82;1.75;;;8.30;99.90;;;;;;5059986;28;20630;-80
2024/01/01 03:19:01;;;;;;;7.55;1.42;;;8.30;99.90;;;;;;5065300;28;20045;-80
2024/01/01 03:21:30;;;;;;;11.80;1.88;;;8.30;99.90;;;;;;5068121;28;20407;-79
2024/01/01 03:23:57;;;;;;;10.88;1.42;;;8.30;99.90;;;;;;5071736;28;20542;-79
2024/01/01 03:26:24;;;;;;;11.48;2.03;;;8.30;99.90;;;;;;5070770;28;20110;-79
2024/01/01 03:28:51;;;;;;;12.07;1.65;;;8.30;99.90;;;;;;5071364;28;20040;-79
2024/01/01 03:31:18;;;;;;;10.48;1.98;;;8.30;99.90;;;;;;5068545;28;20534;-79
2024/01/01 03:33:45;;;;;;;10.00;1.92;;;8.30;99.90;;;;;;5069963;28;20620;-78
2024/01/01 03:36:13;;;;;;;12.75;2.13;;;8.30;99.90;;;;;;5063842;28;20091;-78
2024/01/01 03:38:39;;;;;;;5.82;1.48;;;8.30;99.90;;;;;;5067995;28;20044;-79
2024/01/01 03:41:06;;;;;;;6.72;1.40;;;8.30;99.90;;;;;;5068419;28;20045;-78
2024/01/01 03:43:33;;;;;;;8.73;2.17;;;8.30;99.90;;;;;;5065999;28;20479;-79
2024/01/01 03:46:00;;;;;;;6.65;1.20;;;8.40;99.90;;;;;;5069392;28;20045;-79
2024/01/01 03:48:27;;;;;;;10.45;1.70;;;8.30;99.90;;;;;;5063918;28;20493;-79
2024/01/01 03:50:54;;;;;;;11.95;1.75;;;8.40;99.90;;;;;;5070614;28;20140;-79
2024/01/01 03:53:20;;;;;;;7.55;1.45;;;8.40;99.90;;;;;;5066991;28;20063;-79
2024/01/01 03:55:47;;;;;;;14.00;3.83;;;8.40;99.90;;;;;;5067965;28;20059;-80
2024/01/01 03:58:14;;;;;;;9.30;1.70;;;8.30;99.90;;;;;;5068861;28;20495;-79
2024/01/01 04:00:41;;;;;;;10.43;2.00;;;8.30;99.90;;;;;;5065874;28;20048;-79
2024/01/01 04:03:08;;;;;;;14.90;2.75;;;8.30;99.90;;;;;;5066739;28;20060;-81
2024/01/01 04:05:35;;;;;;;8.98;1.58;;;8.30;99.90;;;;;;5061631;28;20140;-80
2024/01/01 04:08:02;;;;;;;14.32;2.00;;;8.30;99.90;;;;;;5068689;28;20045;-80
2024/01/01 04:10:29;;;;;;;8.27;1.50;;;8.30;99.90;;;;;;5068982;28;20135;-80
2024/01/01 04:12:56;;;;;;;10.32;2.63;;;8.30;99.90;;;;;;5062676;28;20076;-79
2024/01/01 04:15:23;;;;;;;12.07;1.67;;;8.30;99.90;;;;;;5064523;28;20416;-79
2024/01/01 04:17:50;;;;;;;11.30;1.90;;;8.30;99.90;;;;;;5067967;28;20056;-79
2024/01/01 04:20:17;;;;;;;13.25;2.15;;;8.30;99.90;;;;;;5067931;28;20056;-79
2024/01/01 04:22:45;;;;;;;5.38;1.42;;;8.30;99.90;;;;;;5062504;28;20053;-77
2024/01/01 04:25:12;;;;;;;10.38;2.63;;;8.30;99.90;;;;;;5067688;28;20484;-79
2024/01/01 04:27:39;;;;;;;9.57;1.65;;;8.20;99.90;;;;;;5056387;28;20040;-79
2024/01/01 04:30:07;;;;;;;10.63;2.20;;;8.20;99.90;;;;;;5066962;28;20055;-79
2024/01/01 04:32:34;;;;;;;16.63;2.13;;;8.20;99.90;;;;;;5066682;28;20119;-79
2024/01/01 04:35:03;;;;;;;8.77;2.80;;;8.20;99.90;;;;;;5067573;28;20487;-77
2024/01/01 04:37:30;;;;;;;8.38;2.17;;;8.30;99.90;;;;;;5073541;28;20106;-79
2024/01/01 04:39:57;;;;;;;14.65;2.05;;;8.20;99.90;;;;;;5063343;28;20064;-78
2024/01/01 04:42:24;;;;;;;10.95;2.53;;;8.20;99.90;;;;;;5065165;28;20111;-77
2024/01/01 04:44:52;;;;;;;9.60;1.88;;;8.20;99.90;;;;;;5060464;28;20053;-77
2024/01/01 04:47:19;;;;;;;8.82;1.60;;;8.20;99.90;;;;;;5064890;28;20048;-77
2024/01/01 04:49:46;;;;;;;16.08;2.00;;;8.20;99.90;;;;;;5071570;28;20101;-77
2024/01/01 04:52:13;;;;;;;12.65;3.40;;;8.10;99.90;;;;;;5060442;28;20139;-77
2024/01/01 04:54:40;;;;;;;12.63;2.92;;;8.10;99.90;;;;;;5066448;28;20075;-78
2024/01/01 04:57:06;;;;;;;11.15;1.63;;;8.10;99.90;;;;;;5063685;28;20075;-77
2024/01/01 04:59:33;;;;;;;15.50;4.18;;;8.10;99.90;;;;;;5064338;28;20044;-77
2024/01/01 05:02:00;;;;;;;16.15;2.28;;;8.10;99.90;;;;;;5064059;28;20040;-77
2024/01/01 05:04:27;;;;;;;8.88;1.80;;;8.00;99.90;;;;;;5065843;28;20151;-77
2024/01/01 05:06:53;;;;;;;18.75;3.22;;;8.00;99.90;;;;;;5063571;28;20095;-77
2024/01/01 05:09:20;;;;;;;12.10;2.08;;;8.00;99.90;;;;;;5066993;28;20053;-79
2024/01/01 05:11:47;;;;;;;9.27;1.27;;;7.90;99.90;;;;;;5067589;28;20125;-77
2024/01/01 05:14:14;;;;;;;9.88;2.30;;;7.90;99.90;;;;;;5063278;28;20167;-77
2024/01/01 05:16:44;;;;;;;12.32;2.58;;;7.90;99.90;;;;;;5068239;28;20431;-76
2024/01/01 05:19:11;;;;;;;15.85;2.38;;;7.90;99.90;;;;;;5064149;28;20044;-79
2024/01/01 05:21:37;;;;;;;11.05;2.20;;;7.90;99.90;;;;;;5067382;28;20055;-78
2024/01/01 05:24:04;;;;;;;9.70;2.45;;;7.90;99.90;;;;;;5067160;28;20091;-78
2024/01/01 05:26:31;;;;;;;13.63;2.22;;;7.80;99.90;;;;;;5067396;28;20040;-79
2024/01/01 05:28:58;;;;;;;11.07;3.03;;;7.80;99.90;;;;;;5063825;28;20044;-75
2024/01/01 05:31:25;;;;;;;12.05;2.08;;;7.80;99.90;;;;;;5064173;28;20094;-78
2024/01/01 05:33:52;;;;;;;14.23;1.73;;;7.80;99.90;;;;;;5066151;28;20068;-79
2024/01/01 05:36:19;;;;;;;13.55;2.97;;;7.80;99.90;;;;;;5064544;28;20088;-78
2024/01/01 05:38:46;;;;;;;15.18;2.42;;;7.80;99.90;;;;;;5063422;28;20053;-80
2024/01/01 05:41:12;;;;;;;15.05;2.30;;;7.70;99.90;;;;;;5063479;28;20041;-78
2024/01/01 05:43:39;;;;;;;12.40;2.03;;;7.70;99.90;;;;;;5067462;28;20056;-78
2024/01/01 05:46:06;;;;;;;17.60;2.58;;;7.70;99.90;;;;;;5061331;28;20120;-78
2024/01/01 05:48:33;;;;;;;14.95;2.97;;;7.70;99.90;;;;;;5055600;28;20111;-78
2024/01/01 05:51:07;;;;;;;;;;;7.60;99.90;;;;;;5060786;28;20078;-78
2024/01/01 05:53:34;;;;;;;10.32;1.67;;;7.60;99.90;;;;;;5060679;28;20260;-77
2024/01/01 05:56:02;;;;;;;10.07;2.30;;;7.50;99.90;;;;;;5055154;28;20063;-77
2024/01/01 05:58:29;;;;;;;8.75;2.10;;;7.50;99.90;;;;;;5066488;28;20498;-77
2024/01/01 06:00:56;;;;;;;10.70;3.75;;;7.50;99.90;;;;;;5065171;28;20040;-77
2024/01/01 06:03:23;;;;;;;7.65;2.17;;;7.50;99.90;;;;;;5065787;28;20416;-77
2024/01/01 06:05:50;;;;;;;13.02;2.50;;;7.50;99.90;;;;;;5064233;28;20040;-76
2024/01/01 06:08:16;;;;;;;8.82;2.80;;;7.50;99.90;;;;;;5065201;28;20048;-76
2024/01/01 06:10:44;;;;;;;16.70;3.17;;;7.50;99.90;;;;;;5059395;28;20059;-76
2024/01/01 06:13:11;;;;;;;12.60;2.67;;;7.50;99.90;;;;;;5059890;28;20037;-78
2024/01/01 06:15:37;;;;;;;18.13;2.47;;;7.50;99.90;;;;;;5065371;28;20049;-77
2024/01/01 06:18:04;;;;;;;12.68;2.45;;;7.40;99.90;;;;;;5066764;28;20491;-77
2024/01/01 06:20:32;;;;;;;13.88;2.22;;;7.40;99.90;;;;;;5065296;28;20053;-77
2024/01/01 06:22:59;;;;;;;13.43;4.43;;;7.40;99.90;;;;;;5063367;28;20090;-76
2024/01/01 06:25:26;;;;;;;12.88;2.45;;;7.30;99.90;;;;;;5061908;28;20060;-77
2024/01/01 06:27:53;;;;;;;19.10;2.80;;;7.30;99.90;;;;;;5064077;28;20579;-76
2024/01/01 06:30:20;;;;;;;19.80;2.78;;;7.30;99.90;;;;;;5061387;28;20056;-76
2024/01/01 06:32:47;;;;;;;16.35;3.03;;;7.30;99.90;;;;;;5064696;28;20511;-77
2024/01/01 06:35:14;;;;;;;10.82;3.00;;;7.30;99.90;;;;;;5073371;28;20101;-76
2024/01/01 06:37:41;;;;;;;19.15;3.05;;;7.30;99.90;;;;;;5059663;28;20097;-77
2024/01/01 06:40:08;;;;;;;15.52;3.53;;;7.30;99.90;;;;;;5065552;28;20041;-77
2024/01/01 06:42:35;;;;;;;19.50;3.58;;;7.30;99.90;;;;;;5064356;28;20045;-75
2024/01/01 06:45:05;;;;;;;12.05;2.42;;;7.20;99.90;;;;;;5066448;28;20049;-77
2024/01/01 06:47:32;;;;;;;15.20;2.75;;;7.30;99.90;;;;;;5066663;28;20435;-76
2024/01/01 06:49:59;;;;;;;23.05;3.17;;;7.30;99.90;;;;;;5059527;28;20040;-76
2024/01/01 06:52:26;;;;;;;7.30;3.67;;;7.20;99.90;;;;;;5063388;28;20462;-77
2024/01/01 06:54:53;;;;;;;18.27;3.20;;;7.20;99.90;;;;;;5061595;28;20113;-77
2024/01/01 06:57:20;;;;;;;15.77;2.60;;;7.30;99.90;;;;;;5070682;28;20094;-77
2024/01/01 06:59:47;;;;;;;15.63;2.28;;;7.30;99.90;;;;;;5066190;28;20203;-76
2024/01/01 07:02:13;;;;;;;13.88;3.15;;;7.30;99.90;;;;;;5065004;28;20492;-77
2024/01/01 07:04:41;;;;;;;15.50;2.80;;;7.30;99.90;;;;;;5058959;28;20467;-76
2024/01/01 07:07:08;;;;;;;15.45;3.03;;;7.30;99.90;;;;;;5064070;28;20123;-76
2024/01/01 07:09:35;;;;;;;17.83;2.50;;;7.30;99.90;;;;;;5066092;28;20048;-75
2024/01/01 07:12:20;;;;;;;23.67;3.05;;;7.30;99.90;;;;;;5065752;28;20076;-75
2024/01/01 07:14:47;;;;;;;17.02;2.53;;;7.30;99.90;;;;;;5064934;28;20457;-77
2024/01/01 07:17:14;;;;;;;18.83;3.47;;;7.30;99.90;;;;;;5063696;28;20526;-76
2024/01/01 07:19:40;;;;;;;15.70;3.70;;;7.30;99.90;;;;;;5063047;28;20098;-75
2024/01/01 07:22:07;;;;;;;21.75;3.30;;;7.30;99.90;;;;;;5065362;28;20056;-76
2024/01/01 07:24:34;;;;;;;26.38;3.47;;;7.30;99.90;;;;;;5067046;28;20087;-76
2024/01/01 07:27:01;;;;;;;19.38;3.13;;;7.30;99.90;;;;;;5068231;28;20094;-75
2024/01/01 07:29:28;;;;;;;18.45;3.10;;;7.30;99.90;;;;;;5061352;28;20044;-76
2024/01/01 07:31:55;;;;;;;19.88;3.92;;;7.30;99.90;;;;;;5063938;28;20044;-76
2024/01/01 07:34:22;;;;;;;20.38;3.35;;;7.30;99.90;;;;;;5076085;28;20457;-75
2024/01/01 07:36:48;;;;;;;14.55;2.88;;;7.20;99.90;;;;;;5072111;28;20048;-76
2024/01/01 07:39:19;;;;;;;19.55;3.13;;;7.30;99.90;;;;;;5069260;28;20701;-75
2024/01/01 07:41:46;;;;;;;19.10;4.00;;;7.30;99.90;;;;;;5070075;28;20037;-75
2024/01/01 07:44:13;;;;;;;23.73;3.72;;;7.30;99.90;;;;;;4718381;28;10000170;-75
2024/01/01 07:46:41;;;;;;;25.85;3.42;;;7.30;99.90;;;;;;5066513;28;20118;-76
2024/01/01 07:49:08;;;;;;;24.45;3.50;;;7.30;99.90;;;;;;5067418;28;20639;-76
2024/01/01 07:51:35;;;;;;;16.85;4.28;;;7.20;99.90;;;;;;5065907;28;20048;-76
2024/01/01 07:54:02;;;;;;;18.92;3.97;;;7.20;99.90;;;;;;5058764;28;20048;-76
2024/01/01 07:56:29;;;;;;;25.77;4.18;;;7.30;99.90;;;;;;5070760;28;20127;-78
2024/01/01 07:58:55;;;;;;;23.67;3.72;;;7.30;99.90;;;;;;5071111;28;20052;-77
2024/01/01 08:01:23;;;;;;;20.48;3.10;;;7.30;99.90;;;;;;5057276;28;20051;-75
2024/01/01 08:03:50;;;;;;;19.45;3.22;;;7.30;99.90;;;;;;5069359;28;20048;-77
2024/01/01 08:06:21;;;;;;;28.05;3.58;;;7.30;99.90;;;;;;5060398;28;20394;-77
2024/01/01 08:08:48;;;;;;;25.80;4.50;;;7.30;99.90;;;;;;5061498;28;20110;-76
2024/01/01 08:11:15;;;;;;;22.10;2.65;;;7.30;99.90;;;;;;5062031;28;20051;-77
2024/01/01 08:13:42;;;;;;;15.68;3.90;;;7.30;99.90;;;;;;5067918;28;20052;-76
2024/01/01 08:16:09;;;;;;;16.35;4.47;;;7.30;99.90;;;;;;5065684;28;20041;-76
2024/01/01 08:18:35;;;;;;;20.95;3.15;;;7.30;99.90;;;;;;5061406;28;20059;-77
2024/01/01 08:21:03;;;;;;;23.00;4.35;;;7.30;99.90;;;;;;5064748;28;20037;-76
2024/01/01 08:23:31;;;;;;;22.73;2.88;;;7.30;99.90;;;;;;5060379;28;20056;-77
2024/01/01 08:25:58;;;;;;;18.50;4.10;;;7.30;99.90;;;;;;5061682;28;20121;-76
2024/01/01 08:28:25;;;;;;;22.35;4.15;;;7.30;99.90;;;;;;5063456;28;20050;-77
2024/01/01 08:30:54;;;;;;;12.43;2.55;;;7.30;99.90;;;;;;5058032;28;20079;-78
2024/01/01 08:33:21;;;;;;;19.00;3.92;;;7.30;99.90;;;;;;5055673;28;20048;-77
2024/01/01 08:35:53;;;;;;;27.10;4.25;;;7.30;99.90;;;;;;5055091;28;20044;-76
2024/01/01 08:38:19;;;;;;;17.58;3.78;;;7.30;99.90;;;;;;5068031;28;20499;-75
2024/01/01 08:40:46;;;;;;;25.33;4.50;;;7.30;99.90;;;;;;5066526;28;20044;-76
2024/01/01 08:43:13;;;;;;;22.90;4.03;;;7.30;99.90;;;;;;5064926;28;20048;-75
2024/01/01 08:45:40;;;;;;;24.80;3.08;;;7.30;99.90;;;;;;5063664;28;20597;-76
2024/01/01 08:48:07;;;;;;;26.67;3.40;;;7.40;99.90;;;;;;5060962;28;20129;-77
2024/01/01 08:50:34;;;;;;;24.08;4.90;;;7.40;99.90;;;;;;5059310;28;20045;-76
2024/01/01 08:53:01;;;;;;;15.02;2.90;;;7.40;99.90;;;;;;5065683;28;20445;-76
2024/01/01 08:55:28;;;;;;;21.08;3.22;;;7.40;99.90;;;;;;5066241;28;20055;-75
2024/01/01 08:57:55;;;;;;;19.02;3.13;;;7.40;99.90;;;;;;5070311;28;20515;-76
2024/01/01 09:00:22;;;;;;;20.10;3.65;;;7.40;99.90;;;;;;5062886;28;20111;-75
2024/01/01 09:02:49;;;;;;;24.55;3.65;;;7.40;99.90;;;;;;5053531;28;20063;-75
2024/01/01 09:05:16;;;;;;;21.05;3.13;;;7.40;99.90;;;;;;5060126;28;20068;-75
2024/01/01 09:07:43;;;;;;;24.85;3.00;;;7.40;99.90;;;;;;5067803;28;20079;-70
2024/01/01 09:10:10;;;;;;;19.80;4.00;;;7.40;99.90;;;;;;5062075;28;20083;-71
2024/01/01 09:12:37;;;;;;;11.73;2.42;;;7.50;99.90;;;;;;5056260;28;20808;-71
2024/01/01 09:15:04;;;;;;;26.67;4.28;;;7.40;99.90;;;;;;5060797;28;20492;-70
2024/01/01 09:17:31;;;;;;;21.35;2.85;;;7.40;99.90;;;;;;5062070;28;20040;-71
2024/01/01 09:19:58;;;;;;;16.02;3.42;;;7.50;99.90;;;;;;5062253;28;20049;-71
2024/01/01 09:22:25;;;;;;;18.63;3.72;;;7.50;99.90;;;;;;5057910;28;20052;-73
2024/01/01 09:24:52;;;;;;;17.20;2.78;;;7.50;99.90;;;;;;5062523;28;20056;-73
2024/01/01 09:27:19;;;;;;;21.55;3.35;;;7.60;99.90;;;;;;5062710;28;20052;-73
2024/01/01 09:29:46;;;;;;;19.25;3.05;;;7.60;99.90;;;;;;5059387;28;20044;-73
2024/01/01 09:32:13;;;;;;;14.27;2.25;;;7.60;99.90;;;;;;5064175;28;20456;-73
2024/01/01 09:34:40;;;;;;;26.42;4.97;;;7.60;99.90;;;;;;5063898;28;20044;-73
2024/01/01 09:37:07;;;;;;;20.33;2.80;;;7.60;99.90;;;;;;5063286;28;20136;-73
2024/01/01 09:39:34;;;;;;;15.93;2.95;;;7.70;99.90;;;;;;5063435;28;20097;-73
2024/01/01 09:42:01;;;;;;;22.92;4.43;;;7.70;99.90;;;;;;5059313;28;20064;-73
2024/01/01 09:44:28;;;;;;;19.75;3.50;;;7.70;99.90;;;;;;5063268;28;20102;-73
2024/01/01 09:46:55;;;;;;;16.88;2.47;;;7.80;99.90;;;;;;5065967;28;20074;-73
2024/01/01 09:49:22;;;;;;;22.65;3.60;;;7.80;99.90;;;;;;5062384;28;20052;-73
2024/01/01 09:51:50;;;;;;;16.60;2.63;;;7.80;99.90;;;;;;5052146;28;20128;-74
2024/01/01 09:54:17;;;;;;;11.95;3.05;;;7.80;99.90;;;;;;5059960;28;20114;-73
2024/01/01 09:56:44;;;;;;;15.90;3.58;;;7.90;99.90;;;;;;5060847;28;20052;-73
2024/01/01 09:59:11;;;;;;;18.75;3.45;;;7.90;99.90;;;;;;5062853;28;20098;-74
2024/01/01 10:01:38;;;;;;;23.13;2.90;;;7.90;99.90;;;;;;5062037;28;20103;-74
2024/01/01 10:04:09;;;;;;;18.02;3.75;;;7.90;99.90;;;;;;5060503;28;20067;-72
2024/01/01 10:06:36;;;;;;;18.48;2.78;;;8.00;99.90;;;;;;5062841;28;20056;-74
2024/01/01 10:09:10;;;;;;;24.40;2.67;;;8.00;99.90;;;;;;5057445;28;20533;-73
2024/01/01 10:11:44;;;;;;;22.57;3.03;;;8.10;99.90;;;;;;5049118;28;20141;-73
2024/01/01 10:14:11;;;;;;;12.25;2.65;;;8.20;99.90;;;;;;5054584;28;20051;-73
2024/01/01 10:16:39;;;;;;;18.38;2.15;;;8.10;99.90;;;;;;5063076;28;20082;-73
2024/01/01 10:19:07;;;;;;;16.10;2.22;;;8.20;99.90;;;;;;5056813;28;20090;-74
2024/01/01 10:21:36;;;;;;;16.55;3.17;;;8.20;99.90;;;;;;5057087;28;20049;-73
2024/01/01 10:24:16;;;;;;;22.20;3.45;;;8.30;99.90;;;;;;5052432;28;20040;-73
2024/01/01 10:26:46;;;;;;;24.83;3.70;;;8.30;99.90;;;;;;5056908;28;20048;-73
2024/01/01 10:29:15;;;;;;;26.42;3.55;;;8.30;99.90;;;;;;5053993;28;20603;-74
2024/01/01 10:31:45;;;;;;;20.05;3.05;;;8.40;99.90;;;;;;5057801;28;20138;-73
2024/01/01 10:34:15;;;;;;;25.38;3.90;;;8.40;99.90;;;;;;5058768;28;21198;-73
2024/01/01 10:36:42;;;;;;;15.55;2.85;;;8.50;99.90;;;;;;5069178;28;20058;-70
2024/01/01 10:39:10;;;;;;;20.52;3.13;;;8.60;99.90;;;;;;5059032;28;20048;-70
2024/01/01 10:41:39;;;;;;;16.75;2.92;;;8.70;99.90;;;;;;5059655;28;20059;-71
2024/01/01 10:44:08;;;;;;;18.67;3.33;;;8.70;99.90;;;;;;5059146;28;20089;-73
2024/01/01 10:46:38;;;;;;;16.90;3.08;;;8.70;99.90;;;;;;5057032;28;20048;-72
2024/01/01 10:49:11;;;;;;;16.85;3.30;;;8.80;99.90;;;;;;5049671;28;20044;-72
2024/01/01 10:52:16;;;;;;;15.43;2.55;;;8.90;99.90;;;;;;5059548;28;20103;-72
2024/01/01 10:55:05;;;;;;;24.55;3.17;;;8.90;99.90;;;;;;5063755;28;20135;-73
2024/01/01 10:57:53;;;;;;;22.67;3.20;;;8.90;99.90;;;;;;5053254;28;20531;-71
2024/01/01 11:00:27;;;;;;;13.15;3.55;;;8.90;99.90;;;;;;5055464;28;20056;-73
2024/01/01 11:02:54;;;;;;;18.23;3.28;;;8.90;99.90;;;;;;5054240;28;20048;-73
2024/01/01 11:05:33;;;;;;;20.83;2.88;;;8.90;99.90;;;;;;5034592;28;20048;-72
2024/01/01 11:08:03;;;;;;;10.35;2.97;;;8.80;99.90;;;;;;5049188;28;20041;-73
2024/01/01 11:10:44;;;;;;;15.23;2.40;;;8.80;99.90;;;;;;5053170;28;20075;-74
2024/01/01 11:13:32;;;;;;;21.45;2.75;;;8.80;99.90;;;;;;5059571;28;20483;-74
2024/01/01 11:16:00;;;;;;;13.82;2.42;;;8.90;99.90;;;;;;5054990;28;20124;-72
2024/01/01 11:18:34;;;;;;;8.38;2.47;;;8.90;99.90;;;;;;5052741;28;20095;-71
2024/01/01 11:21:07;;;;;;;12.27;2.03;;;8.90;99.90;;;;;;5056711;28;20048;-72
2024/01/01 11:23:41;;;;;;;20.70;2.80;;;9.00;99.90;;;;;;5057683;28;20045;-72
2024/01/01 11:26:23;;;;;;;14.77;2.97;;;9.00;99.90;;;;;;5054141;28;20053;-73
2024/01/01 11:28:57;;;;;;;12.90;2.60;;;8.90;99.90;;;;;;5061637;28;20087;-72
2024/01/01 11:31:27;;;;;;;18.88;3.15;;;9.00;99.90;;;;;;5054826;28;20536;-73
2024/01/01 11:34:14;;;;;;;16.77;2.83;;;9.00;99.90;;;;;;5054478;28;20052;-73
2024/01/01 11:36:52;;;;;;;23.30;2.40;;;9.10;99.90;;;;;;5053457;28;20048;-73
2024/01/01 11:39:24;;;;;;;15.02;2.97;;;9.10;99.90;;;;;;5055951;28;20504;-73
2024/01/01 11:41:51;;;;;;;12.75;3.08;;;9.10;99.90;;;;;;5061715;28;20146;-75
2024/01/01 11:44:18;;;;;;;15.00;2.45;;;9.10;99.90;;;;;;5043451;28;20135;-72
2024/01/01 11:46:46;;;;;;;20.35;3.03;;;9.10;99.90;;;;;;5056374;28;20065;-71
2024/01/01 11:49:13;;;;;;;19.00;3.05;;;9.10;99.90;;;;;;5054060;28;20787;-72
2024/01/01 11:51:52;;;;;;;14.55;2.38;;;9.20;99.90;;;;;;5058463;28;20132;-72
2024/01/01 11:54:19;;;;;;;17.80;3.13;;;9.20;99.90;;;;;;5059777;28;20060;-72
2024/01/01 11:56:46;;;;;;;27.00;3.58;;;9.20;99.90;;;;;;5068892;28;20052;-72
2024/01/01 11:59:13;;;;;;;15.98;2.78;;;9.20;99.90;;;;;;5059618;28;20048;-72
2024/01/01 12:01:40;;;;;;;12.82;2.13;;;9.20;99.90;;;;;;5058382;28;20054;-71
2024/01/01 12:04:08;;;;;;;10.55;2.17;;;9.20;99.90;;;;;;5052166;28;20045;-72
2024/01/01 12:06:35;;;;;;;10.00;2.60;;;9.10;99.90;;;;;;5059405;28;20084;-72
2024/01/01 12:09:06;;;;;;;20.63;2.95;;;9.00;99.90;;;;;;5058009;28;20055;-72
2024/01/01 12:11:33;;;;;;;9.88;2.30;;;9.00;99.90;;;;;;5063768;28;20048;-71
2024/01/01 12:14:01;;;;;;;14.93;2.08;;;9.10;99.90;;;;;;5060720;28;20044;-72
2024/01/01 12:16:31;;;;;;;17.60;2.95;;;9.10;99.90;;;;;;5052652;28;20052;-73
2024/01/01 12:19:10;;;;;;;11.98;1.75;;;9.10;99.90;;;;;;5050091;28;20602;-73
2024/01/01 12:21:41;;;;;;;18.02;2.42;;;9.10;99.90;;;;;;5059213;28;20056;-73
2024/01/01 12:24:15;;;;;;;16.98;2.80;;;9.00;99.90;;;;;;5059280;28;20094;-71
2024/01/01 12:26:43;;;;;;;16.75;2.33;;;9.10;99.90;;;;;;5057296;28;20052;-72
2024/01/01 12:29:15;;;;;;;13.93;2.80;;;9.10;99.90;;;;;;5061165;28;20048;-73
2024/01/01 12:31:43;;;;;;;17.17;2.25;;;9.10;99.90;;;;;;5054264;28;20049;-72
2024/01/01 12:34:17;;;;;;;17.42;3.45;;;9.10;99.90;;;;;;5058221;28;20041;-71
2024/01/01 12:36:46;;;;;;;16.00;3.13;;;9.10;99.90;;;;;;5059979;28;20055;-71
2024/01/01 12:39:15;;;;;;;14.30;2.55;;;9.20;99.90;;;;;;5062063;28;20037;-72
2024/01/01 12:41:42;;;;;;;18.95;2.30;;;9.10;99.90;;;;;;5057803;28;20078;-73
2024/01/01 12:44:09;;;;;;;18.38;2.55;;;9.10;99.90;;;;;;5058934;28;20044;-74
2024/01/01 12:46:40;;;;;;;20.05;3.88;;;9.10;99.90;;;;;;5058383;28;20092;-73
2024/01/01 12:49:07;;;;;;;13.38;3.13;;;9.10;99.90;;;;;;5060484;28;20044;-72
2024/01/01 12:51:35;;;;;;;15.00;3.22;;;9.10;99.90;;;;;;5063032;28;20095;-72
2024/01/01 12:54:03;;;;;;;15.93;2.28;;;9.10;99.90;;;;;;5058705;28;20041;-71